メインページ
METAR-TAF:

METAR-TAF

空港 :

仁川国際空港, 大韓民国

緯度: 37-28N, 経度: 126-27E, 海抜: 7m

現時点の気象観測

当レポートは30分前の03:30(UTC)に作成
南西の風 10kt
気温 24°C
湿度 69%
気圧 1015 hPa
視程10km以上
高度1000ftの雲はほとんどない
高度3000ftの雲は散在している
高度18000ftの千切れ雲あり

METAR: RKSI 230330Z 22010KT 9999 FEW010 SCT030 BKN180 24/18 Q1015 NOSIG

時間: 13:00 (04:00 UTC)

予報

当レポートは5時間0分前の23:00(UTC)に作成
予報は23日の 00時(UTC)から 24日の 06時(UTC)まで有効
南/南東の風 7kt
視程10km以上
高度3000ftの雲は散在している
23日の 04時(UTC)から 23日の 05時(UTC)まで徐々に
西/南西の風 7kt
視程10km以上
1,500メートル以下は雲なし、積乱雲なし
23日の 10時(UTC)から 23日の 11時(UTC)まで徐々に
の風 5kt
視程: 6000m
23日の 16時(UTC)から 23日の 17時(UTC)まで徐々に
南/南東の風 5kt
視程: 4200m
23日の 20時(UTC)から 23日の 21時(UTC)まで徐々に
視程: 6000m
24日の 03時(UTC)から 24日の 04時(UTC)まで徐々に
西/南西の風 6kt
視程10km以上
1,500メートル以下は雲なし、積乱雲なし

TAF: RKSI 222300Z 2300/2406 16007KT 9999 SCT030 TX25/2305Z TN18/2321Z TX25/2405Z BECMG 2304/2305 25007KT CAVOK BECMG 2310/2311 18005KT 6000 NSC BECMG 2316/2317 15005KT 4200 BR BECMG 2320/2321 6000 NSW BECMG 2403/2404 25006KT CAVOK

4,000以上の空港の気象観測と天気予報(METAR報とTAF報)

利用可能な観測所は地図上に黄色い丸と赤い丸で示す。

丸の上にカーソルを重ねると観測所名を参照できる。

次にクリックすると気象観測と天気予報を参照できる。

マップの切り替え:黒色「×」印の緑ボタンをクリックして拡大、「-」印の緑ボタンをクリックして縮小、緑色の三角印をクリックして隣りの地図に切り替え


METAR-TAF: